Time;durP1;ratioP1;P1;durP2;ratioP2;P2;SDS_P1;SDS_P2;PMS_P1;PMS_P2;Temp;Humidity;BMP_temperature;BMP_pressure;BME280_temperature;BME280_humidity;BME280_pressure;Samples;Min_cycle;Max_cycle;Signal;HPM_P1;HPM_P2
2021/06/11 00:00:43;;;;;;;17.25;14.00;;;;;;;;;;6205779;28;20046;-76
2021/06/11 00:03:45;;;;;;;16.15;13.45;;;;;;;;;;6204677;28;20054;-76
2021/06/11 00:06:46;;;;;;;16.92;13.43;;;;;;;;;;6205732;28;20047;-76
2021/06/11 00:09:47;;;;;;;15.88;14.27;;;;;;;;;;6204887;28;20545;-76
2021/06/11 00:12:50;;;;;;;17.17;14.18;;;;;;;;;;6205117;28;20054;-76
2021/06/11 00:15:51;;;;;;;16.63;13.73;;;;;;;;;;6204451;28;20070;-76
2021/06/11 00:18:52;;;;;;;21.10;15.95;;;;;;;;;;6204378;28;20050;-76
2021/06/11 00:21:54;;;;;;;17.80;16.00;;;;;;;;;;6204583;28;20398;-76
2021/06/11 00:24:55;;;;;;;18.95;14.38;;;;;;;;;;6204815;28;20046;-76
2021/06/11 00:28:09;;;;;;;;;;;;;;;;;;;;;
2021/06/11 00:32:06;;;;;;;20.02;16.77;;;;;;;;;;6157997;28;20529;-77
2021/06/11 00:35:16;;;;;;;21.17;19.00;;;;;;;;;;6201217;28;20058;-73
2021/06/11 00:38:18;;;;;;;18.85;16.45;;;;;;;;;;6204485;28;20050;-73
2021/06/11 00:48:51;;;;;;;30.85;23.55;;;;;;;;;;6229558;28;20054;-77
2021/06/11 00:51:53;;;;;;;24.17;16.92;;;;;;;;;;6229062;28;20105;-77
2021/06/11 00:54:54;;;;;;;22.15;16.63;;;;;;;;;;6230516;28;20054;-77
2021/06/11 00:57:57;;;;;;;21.25;16.05;;;;;;;;;;6228980;28;20099;-77
2021/06/11 01:00:58;;;;;;;24.33;16.52;;;;;;;;;;6228887;28;20458;-77
2021/06/11 01:04:03;;;;;;;24.73;16.50;;;;;;;;;;6239623;23;20057;-74
2021/06/11 01:07:05;;;;;;;18.25;16.00;;;;;;;;;;6203927;28;20137;-75
2021/06/11 01:10:08;;;;;;;22.17;16.25;;;;;;;;;;6225293;28;20058;-75
2021/06/11 01:13:09;;;;;;;17.83;15.37;;;;;;;;;;6224422;28;20133;-75
2021/06/11 01:16:10;;;;;;;18.10;16.20;;;;;;;;;;6224992;28;20088;-73
2021/06/11 01:19:14;;;;;;;17.70;15.82;;;;;;;;;;6225737;28;20042;-74
2021/06/11 01:22:18;;;;;;;20.20;15.32;;;;;;;;;;6227078;28;20050;-74
2021/06/11 01:25:26;;;;;;;19.30;16.15;;;;;;;;;;6226181;28;20453;-73
2021/06/11 01:28:29;;;;;;;17.90;16.00;;;;;;;;;;6226677;28;20128;-75
2021/06/11 01:31:32;;;;;;;22.17;17.20;;;;;;;;;;6226862;28;20128;-74
2021/06/11 01:34:34;;;;;;;19.50;16.60;;;;;;;;;;6226722;28;20066;-74
2021/06/11 01:37:36;;;;;;;19.33;16.85;;;;;;;;;;6243944;28;20073;-74
2021/06/11 01:40:38;;;;;;;18.42;16.48;;;;;;;;;;6220964;28;20461;-74
2021/06/11 01:43:40;;;;;;;19.05;16.92;;;;;;;;;;6223301;28;20073;-73
2021/06/11 01:46:44;;;;;;;18.08;16.13;;;;;;;;;;6225245;28;20129;-73
2021/06/11 01:49:46;;;;;;;19.13;16.60;;;;;;;;;;6223904;28;20054;-73
2021/06/11 01:52:48;;;;;;;22.48;17.65;;;;;;;;;;6224751;28;20116;-74
2021/06/11 01:55:49;;;;;;;18.95;16.95;;;;;;;;;;6206581;28;20456;-74
2021/06/11 01:58:52;;;;;;;21.73;17.40;;;;;;;;;;6215602;28;20137;-74
2021/06/11 02:01:54;;;;;;;19.43;16.17;;;;;;;;;;6217013;28;20184;-74
2021/06/11 02:04:55;;;;;;;19.13;17.17;;;;;;;;;;6219621;28;20163;-73
2021/06/11 02:07:56;;;;;;;20.38;16.75;;;;;;;;;;6226899;28;20076;-73
2021/06/11 02:10:57;;;;;;;19.67;16.75;;;;;;;;;;6208757;28;20085;-73
2021/06/11 02:14:00;;;;;;;19.60;17.25;;;;;;;;;;6223023;28;20184;-73
2021/06/11 02:17:01;;;;;;;19.10;16.50;;;;;;;;;;6225357;28;20137;-73
2021/06/11 02:20:04;;;;;;;21.48;16.90;;;;;;;;;;6225167;28;20468;-73
2021/06/11 02:23:05;;;;;;;23.03;17.53;;;;;;;;;;6225558;28;20133;-73
2021/06/11 02:26:10;;;;;;;22.13;16.80;;;;;;;;;;6225694;28;20056;-74
2021/06/11 02:29:12;;;;;;;19.70;16.52;;;;;;;;;;6224724;28;20611;-72
2021/06/11 02:32:13;;;;;;;21.03;17.03;;;;;;;;;;6224795;28;20122;-73
2021/06/11 02:35:18;;;;;;;18.77;16.60;;;;;;;;;;6225046;28;20081;-73
2021/06/11 02:38:19;;;;;;;19.73;17.10;;;;;;;;;;6218803;28;20084;-72
2021/06/11 02:41:22;;;;;;;19.20;16.52;;;;;;;;;;6225631;28;20050;-73
2021/06/11 02:44:27;;;;;;;20.33;16.67;;;;;;;;;;6205330;28;20084;-73
2021/06/11 02:47:31;;;;;;;19.92;16.98;;;;;;;;;;6204756;28;20474;-73
2021/06/11 02:50:37;;;;;;;20.60;17.05;;;;;;;;;;6204925;28;20133;-74
2021/06/11 02:53:41;;;;;;;19.35;16.17;;;;;;;;;;6204820;28;20597;-73
2021/06/11 02:56:44;;;;;;;18.15;16.25;;;;;;;;;;6204771;28;20093;-73
2021/06/11 02:59:48;;;;;;;;;;;;;;;;;;6204572;28;20504;-73
2021/06/11 03:02:52;;;;;;;20.75;16.42;;;;;;;;;;6204455;28;19969;-73
2021/06/11 03:05:55;;;;;;;21.58;17.73;;;;;;;;;;6203461;28;20486;-73
2021/06/11 03:08:56;;;;;;;19.58;17.05;;;;;;;;;;6204308;28;20086;-76
2021/06/11 03:11:59;;;;;;;19.35;17.35;;;;;;;;;;6204171;28;20400;-78
2021/06/11 03:15:02;;;;;;;19.25;17.20;;;;;;;;;;6204971;28;20054;-72
2021/06/11 03:18:06;;;;;;;19.40;17.13;;;;;;;;;;6204350;28;20511;-73
2021/06/11 03:21:11;;;;;;;;;;;;;;;;;;6204821;28;20517;-73
2021/06/11 03:24:17;;;;;;;19.92;16.67;;;;;;;;;;6204760;28;19921;-73
2021/06/11 03:27:21;;;;;;;22.27;18.48;;;;;;;;;;6204405;28;20136;-73
2021/06/11 03:30:26;;;;;;;19.80;17.70;;;;;;;;;;6204191;28;20074;-73
2021/06/11 03:33:28;;;;;;;20.95;17.42;;;;;;;;;;6204090;28;20074;-79
2021/06/11 03:36:32;;;;;;;21.43;17.13;;;;;;;;;;6204766;28;20149;-73
2021/06/11 03:39:42;;;;;;;20.70;16.50;;;;;;;;;;6204314;28;20057;-73
2021/06/11 03:42:43;;;;;;;19.40;17.40;;;;;;;;;;6203999;28;20480;-73
2021/06/11 03:45:46;;;;;;;21.83;18.88;;;;;;;;;;6204104;28;20194;-73
2021/06/11 03:48:50;;;;;;;26.27;17.00;;;;;;;;;;6203777;28;20161;-73
2021/06/11 03:51:52;;;;;;;26.40;17.25;;;;;;;;;;6202403;28;20057;-73
2021/06/11 03:54:58;;;;;;;34.35;20.08;;;;;;;;;;6204397;28;20125;-72
2021/06/11 03:58:02;;;;;;;22.25;19.13;;;;;;;;;;6203684;28;20106;-73
2021/06/11 04:01:06;;;;;;;24.35;18.98;;;;;;;;;;6203878;28;20081;-72
2021/06/11 04:04:07;;;;;;;20.77;18.25;;;;;;;;;;6203039;28;20141;-73
2021/06/11 04:07:13;;;;;;;23.50;18.70;;;;;;;;;;6203433;28;20427;-72
2021/06/11 04:10:18;;;;;;;21.75;19.05;;;;;;;;;;6203655;28;20498;-73
2021/06/11 04:13:25;;;;;;;22.65;18.88;;;;;;;;;;6203514;28;20393;-73
2021/06/11 04:16:44;;;;;;;21.13;18.90;;;;;;;;;;6203701;28;20124;-73
2021/06/11 04:19:49;;;;;;;22.40;18.40;;;;;;;;;;6198932;28;20069;-74
2021/06/11 04:22:51;;;;;;;24.73;18.60;;;;;;;;;;6203343;28;20073;-73
2021/06/11 04:25:53;;;;;;;25.27;19.50;;;;;;;;;;6197035;28;20042;-73
2021/06/11 04:28:55;;;;;;;22.10;18.90;;;;;;;;;;6203719;28;20047;-74
2021/06/11 04:31:58;;;;;;;22.83;18.63;;;;;;;;;;6202934;28;20581;-73
2021/06/11 04:34:59;;;;;;;22.70;18.35;;;;;;;;;;6203339;28;20047;-73
2021/06/11 04:38:01;;;;;;;21.58;18.13;;;;;;;;;;6202872;28;20050;-74
2021/06/11 04:41:02;;;;;;;21.30;17.10;;;;;;;;;;6202640;28;20081;-73
2021/06/11 04:44:06;;;;;;;18.65;16.70;;;;;;;;;;6202502;28;20177;-73
2021/06/11 04:47:09;;;;;;;21.73;17.48;;;;;;;;;;6202848;28;20540;-73
2021/06/11 04:50:10;;;;;;;19.80;17.37;;;;;;;;;;6202328;28;20076;-73
2021/06/11 04:53:11;;;;;;;22.98;18.48;;;;;;;;;;6202165;28;20449;-73
2021/06/11 04:56:13;;;;;;;24.70;18.52;;;;;;;;;;6202313;28;20050;-73
2021/06/11 04:59:14;;;;;;;20.15;17.73;;;;;;;;;;6199841;28;20479;-74
2021/06/11 05:02:16;;;;;;;21.70;17.85;;;;;;;;;;6202924;28;20125;-73
2021/06/11 05:05:18;;;;;;;23.35;18.05;;;;;;;;;;6200653;28;20085;-73
2021/06/11 05:08:19;;;;;;;25.38;17.25;;;;;;;;;;6201816;28;20133;-73
2021/06/11 05:11:20;;;;;;;20.05;16.83;;;;;;;;;;6201972;28;20085;-73
2021/06/11 05:14:21;;;;;;;20.75;17.17;;;;;;;;;;6202078;28;20078;-73
2021/06/11 05:17:24;;;;;;;18.50;16.52;;;;;;;;;;6201694;28;20078;-73
2021/06/11 05:20:25;;;;;;;18.60;16.17;;;;;;;;;;6201439;28;20110;-73
2021/06/11 05:23:26;;;;;;;18.98;16.98;;;;;;;;;;6201829;28;20501;-73
2021/06/11 05:26:27;;;;;;;22.70;17.70;;;;;;;;;;6202102;28;20114;-76
2021/06/11 05:29:28;;;;;;;19.45;16.98;;;;;;;;;;6201669;28;20114;-73
2021/06/11 05:32:31;;;;;;;19.30;17.20;;;;;;;;;;6202170;28;20074;-73
2021/06/11 05:35:32;;;;;;;20.63;18.35;;;;;;;;;;6201436;28;20053;-77
2021/06/11 05:38:33;;;;;;;23.58;17.27;;;;;;;;;;6202375;28;20078;-73
2021/06/11 05:41:34;;;;;;;22.67;17.55;;;;;;;;;;6200730;28;20430;-73
2021/06/11 05:44:35;;;;;;;21.40;18.70;;;;;;;;;;6200560;28;20054;-74
2021/06/11 05:47:39;;;;;;;20.80;18.27;;;;;;;;;;6200427;28;20129;-73
2021/06/11 05:50:40;;;;;;;;;;;;;;;;;;6200617;28;20050;-73
2021/06/11 05:53:41;;;;;;;21.67;17.67;;;;;;;;;;6200331;28;20352;-73
2021/06/11 05:56:42;;;;;;;21.83;17.73;;;;;;;;;;6200324;28;20463;-73
2021/06/11 05:59:43;;;;;;;21.13;17.88;;;;;;;;;;6200573;28;20070;-74
2021/06/11 06:02:46;;;;;;;20.10;18.00;;;;;;;;;;6201053;28;20075;-73
2021/06/11 06:05:47;;;;;;;20.23;16.88;;;;;;;;;;6200611;28;20077;-73
2021/06/11 06:08:48;;;;;;;20.98;17.35;;;;;;;;;;6216393;28;20092;-73
2021/06/11 06:11:49;;;;;;;19.48;17.40;;;;;;;;;;6224525;28;20053;-81
2021/06/11 06:14:51;;;;;;;19.83;17.38;;;;;;;;;;6238721;28;20096;-81
2021/06/11 06:17:53;;;;;;;19.83;17.25;;;;;;;;;;6218201;28;20053;-80
2021/06/11 06:20:55;;;;;;;21.03;17.03;;;;;;;;;;6204524;28;20500;-76
2021/06/11 06:23:56;;;;;;;19.00;15.90;;;;;;;;;;6224135;28;20484;-76
2021/06/11 06:26:57;;;;;;;18.40;15.95;;;;;;;;;;6225378;28;20427;-75
2021/06/11 06:29:58;;;;;;;17.83;15.55;;;;;;;;;;6224432;28;20128;-74
2021/06/11 06:33:01;;;;;;;16.58;14.95;;;;;;;;;;6224927;28;20385;-76
2021/06/11 06:36:02;;;;;;;19.93;15.13;;;;;;;;;;6223918;28;20078;-77
2021/06/11 06:39:06;;;;;;;17.20;15.40;;;;;;;;;;6220925;28;20073;-77
2021/06/11 06:42:08;;;;;;;17.30;15.13;;;;;;;;;;6224150;28;20682;-77
2021/06/11 06:45:13;;;;;;;18.15;15.40;;;;;;;;;;6224556;28;20485;-77
2021/06/11 06:48:15;;;;;;;17.92;15.00;;;;;;;;;;6223885;28;20132;-78
2021/06/11 06:51:18;;;;;;;16.53;14.37;;;;;;;;;;6223363;28;20378;-78
2021/06/11 06:54:19;;;;;;;16.48;12.93;;;;;;;;;;6224733;28;20053;-78
2021/06/11 06:57:20;;;;;;;19.42;13.13;;;;;;;;;;6223523;28;20102;-78
2021/06/11 07:00:22;;;;;;;15.73;13.18;;;;;;;;;;6224119;28;20140;-77
2021/06/11 07:03:24;;;;;;;14.35;12.85;;;;;;;;;;6223077;28;20146;-78
2021/06/11 07:06:26;;;;;;;13.43;12.03;;;;;;;;;;6222642;28;20132;-77
2021/06/11 07:09:28;;;;;;;13.68;12.18;;;;;;;;;;6223538;28;20064;-77
2021/06/11 07:12:29;;;;;;;15.07;12.02;;;;;;;;;;6221962;28;20048;-75
2021/06/11 07:15:30;;;;;;;14.43;11.63;;;;;;;;;;6223046;28;20054;-73
2021/06/11 07:18:33;;;;;;;13.32;11.27;;;;;;;;;;6223165;28;20462;-72
2021/06/11 07:21:34;;;;;;;12.43;10.37;;;;;;;;;;6223366;28;20068;-72
2021/06/11 07:24:36;;;;;;;16.67;11.60;;;;;;;;;;6224657;28;20128;-72
2021/06/11 07:27:37;;;;;;;12.97;10.97;;;;;;;;;;6227371;28;20053;-75
2021/06/11 07:30:38;;;;;;;11.02;9.88;;;;;;;;;;6228757;28;20173;-73
2021/06/11 07:33:41;;;;;;;10.68;9.63;;;;;;;;;;6227945;28;20077;-74
2021/06/11 07:36:42;;;;;;;12.90;9.32;;;;;;;;;;6228110;28;20129;-73
2021/06/11 07:39:43;;;;;;;11.02;9.68;;;;;;;;;;6225227;28;20515;-73
2021/06/11 07:42:44;;;;;;;11.00;9.43;;;;;;;;;;6227358;28;20581;-73
2021/06/11 07:45:45;;;;;;;9.88;8.63;;;;;;;;;;6225666;28;20053;-73
2021/06/11 07:48:48;;;;;;;7.97;7.28;;;;;;;;;;6227314;28;20074;-73
2021/06/11 07:51:50;;;;;;;10.38;7.78;;;;;;;;;;6224627;28;20054;-72
2021/06/11 07:54:51;;;;;;;8.55;7.82;;;;;;;;;;6227596;28;20173;-75
2021/06/11 07:57:52;;;;;;;8.40;7.50;;;;;;;;;;6238111;28;20457;-75
2021/06/11 08:00:53;;;;;;;9.07;7.57;;;;;;;;;;6251330;28;20437;-75
2021/06/11 08:03:55;;;;;;;8.02;6.75;;;;;;;;;;6251343;28;20048;-76
2021/06/11 08:06:56;;;;;;;;;;;;;;;;;;6235361;28;20133;-75
2021/06/11 08:09:58;;;;;;;8.18;5.60;;;;;;;;;;6250801;28;19943;-75
2021/06/11 08:12:59;;;;;;;7.22;6.63;;;;;;;;;;6235579;28;20069;-77
2021/06/11 08:16:00;;;;;;;16.27;7.47;;;;;;;;;;6226823;28;20125;-74
2021/06/11 08:19:03;;;;;;;7.95;7.15;;;;;;;;;;6226291;28;20132;-74
2021/06/11 08:22:04;;;;;;;14.90;8.27;;;;;;;;;;6226332;28;20049;-76
2021/06/11 08:25:06;;;;;;;9.68;8.68;;;;;;;;;;6226879;28;20465;-75
2021/06/11 08:28:08;;;;;;;21.25;8.20;;;;;;;;;;6225847;28;20133;-73
2021/06/11 08:31:09;;;;;;;9.80;7.43;;;;;;;;;;6226133;28;20049;-73
2021/06/11 08:34:13;;;;;;;161.77;18.15;;;;;;;;;;6226059;28;20089;-70
2021/06/11 08:37:14;;;;;;;13.52;9.32;;;;;;;;;;6223526;28;20545;-72
2021/06/11 08:40:16;;;;;;;11.68;7.55;;;;;;;;;;6230003;28;20512;-70
2021/06/11 08:43:18;;;;;;;11.35;7.53;;;;;;;;;;6205959;28;20129;-73
2021/06/11 08:46:22;;;;;;;6.30;5.70;;;;;;;;;;6185528;28;20046;-75
2021/06/11 08:49:24;;;;;;;11.10;7.07;;;;;;;;;;6207967;28;20065;-75
2021/06/11 08:52:27;;;;;;;7.32;6.63;;;;;;;;;;6225174;28;20046;-72
2021/06/11 08:55:29;;;;;;;13.07;7.57;;;;;;;;;;6224896;28;20112;-73
2021/06/11 08:58:30;;;;;;;9.75;8.20;;;;;;;;;;6224972;28;20130;-71
2021/06/11 09:01:32;;;;;;;9.50;8.45;;;;;;;;;;6222243;28;20553;-77
2021/06/11 09:04:46;;;;;;;8.90;8.10;;;;;;;;;;6227134;28;20101;-80
2021/06/11 09:07:47;;;;;;;8.75;7.85;;;;;;;;;;6224180;28;20461;-73
2021/06/11 09:10:49;;;;;;;9.80;8.90;;;;;;;;;;6224425;28;20042;-73
2021/06/11 09:13:54;;;;;;;10.55;7.53;;;;;;;;;;6224470;28;20132;-73
2021/06/11 09:16:55;;;;;;;9.25;8.25;;;;;;;;;;6224249;28;20046;-72
2021/06/11 09:20:10;;;;;;;10.50;9.47;;;;;;;;;;6224973;28;20049;-73
2021/06/11 09:23:11;;;;;;;11.77;10.77;;;;;;;;;;6224969;28;20459;-73
2021/06/11 09:26:12;;;;;;;10.07;9.13;;;;;;;;;;6224370;28;20128;-72
2021/06/11 09:29:21;;;;;;;11.48;10.30;;;;;;;;;;6224251;28;20473;-72
2021/06/11 09:32:24;;;;;;;12.35;10.85;;;;;;;;;;6224332;28;20092;-73
2021/06/11 09:35:33;;;;;;;11.95;10.05;;;;;;;;;;6223978;28;20054;-74
2021/06/11 09:38:34;;;;;;;12.05;10.90;;;;;;;;;;6201196;28;20049;-73
2021/06/11 09:41:35;;;;;;;13.70;12.27;;;;;;;;;;6198771;28;20125;-72
2021/06/11 09:44:36;;;;;;;13.02;11.82;;;;;;;;;;6199837;28;20129;-72
2021/06/11 09:47:40;;;;;;;15.73;14.32;;;;;;;;;;6197990;28;20073;-73
2021/06/11 09:50:48;;;;;;;13.57;12.30;;;;;;;;;;6199328;28;20512;-72
2021/06/11 09:53:50;;;;;;;14.05;12.77;;;;;;;;;;6199126;28;20043;-72
2021/06/11 09:56:54;;;;;;;15.50;12.60;;;;;;;;;;6199014;28;20142;-72
2021/06/11 09:59:55;;;;;;;20.55;12.63;;;;;;;;;;6198474;28;20064;-72
2021/06/11 10:02:58;;;;;;;13.75;12.43;;;;;;;;;;6200547;28;20561;-72
2021/06/11 10:06:02;;;;;;;17.83;14.30;;;;;;;;;;6201612;28;20141;-72
2021/06/11 10:09:19;;;;;;;12.98;11.82;;;;;;;;;;6176766;28;20065;-72
2021/06/11 10:12:20;;;;;;;15.25;13.73;;;;;;;;;;6198488;28;20133;-72
2021/06/11 10:15:21;;;;;;;14.63;12.87;;;;;;;;;;6199186;28;20057;-73
2021/06/11 10:18:23;;;;;;;13.35;12.15;;;;;;;;;;6198518;28;20125;-72
2021/06/11 10:21:28;;;;;;;11.88;10.85;;;;;;;;;;6198265;28;20049;-72
2021/06/11 10:24:29;;;;;;;12.65;11.55;;;;;;;;;;6223150;28;20045;-72
2021/06/11 10:27:30;;;;;;;13.33;10.03;;;;;;;;;;6223130;28;20050;-73
2021/06/11 10:30:32;;;;;;;12.30;11.10;;;;;;;;;;6223626;28;20124;-73
2021/06/11 10:33:50;;;;;;;16.10;14.68;;;;;;;;;;6219863;28;20073;-73
2021/06/11 10:36:53;;;;;;;13.23;12.02;;;;;;;;;;6222978;28;20358;-72
2021/06/11 10:39:54;;;;;;;15.10;13.65;;;;;;;;;;6222893;28;20073;-73
2021/06/11 10:43:22;;;;;;;13.73;12.37;;;;;;;;;;6222804;28;20121;-73
2021/06/11 10:46:25;;;;;;;14.15;12.85;;;;;;;;;;6222983;28;20072;-72
2021/06/11 10:49:26;;;;;;;11.73;10.57;;;;;;;;;;6223574;28;20046;-73
2021/06/11 10:52:32;;;;;;;15.43;13.73;;;;;;;;;;6222644;28;20070;-73
2021/06/11 10:55:45;;;;;;;16.05;14.57;;;;;;;;;;6222184;28;20172;-73
2021/06/11 10:58:46;;;;;;;15.57;12.18;;;;;;;;;;6208401;28;20153;-73
2021/06/11 11:01:52;;;;;;;13.95;12.52;;;;;;;;;;6202242;28;20169;-72
2021/06/11 11:04:53;;;;;;;13.68;12.38;;;;;;;;;;6214127;28;20045;-74
2021/06/11 11:07:55;;;;;;;13.07;11.98;;;;;;;;;;6226698;28;20057;-71
2021/06/11 11:10:57;;;;;;;14.75;13.25;;;;;;;;;;6226712;28;20533;-75
2021/06/11 11:13:58;;;;;;;15.15;13.75;;;;;;;;;;6222429;28;20092;-74
2021/06/11 11:16:59;;;;;;;15.70;14.27;;;;;;;;;;6224284;28;20133;-73
2021/06/11 11:20:04;;;;;;;16.67;15.13;;;;;;;;;;6222489;28;20157;-75
2021/06/11 11:23:09;;;;;;;14.35;12.85;;;;;;;;;;6226397;28;20452;-73
2021/06/11 11:26:10;;;;;;;12.55;11.25;;;;;;;;;;6226464;28;20113;-74
2021/06/11 11:29:12;;;;;;;12.00;10.80;;;;;;;;;;6226356;28;20133;-73
2021/06/11 11:32:13;;;;;;;;;;;;;;;;;;6223781;28;20161;-76
2021/06/11 11:35:17;;;;;;;15.25;13.35;;;;;;;;;;6225098;28;19926;-78
2021/06/11 11:38:19;;;;;;;14.07;12.77;;;;;;;;;;6225419;28;20048;-75
2021/06/11 11:41:21;;;;;;;13.02;11.48;;;;;;;;;;6225676;28;20120;-76
2021/06/11 11:44:22;;;;;;;;;;;;;;;;;;6226332;28;20060;-75
2021/06/11 11:47:23;;;;;;;10.80;9.77;;;;;;;;;;6226403;28;20009;-76
2021/06/11 11:50:27;;;;;;;13.27;11.98;;;;;;;;;;6220560;28;20141;-73
2021/06/11 11:53:29;;;;;;;13.48;12.05;;;;;;;;;;6224715;28;20052;-73
2021/06/11 11:56:30;;;;;;;12.30;11.00;;;;;;;;;;6229629;28;20061;-73
2021/06/11 11:59:31;;;;;;;11.25;10.25;;;;;;;;;;6225577;28;20129;-79
2021/06/11 12:02:33;;;;;;;10.90;9.80;;;;;;;;;;6213946;28;20145;-76
2021/06/11 12:05:34;;;;;;;12.02;10.82;;;;;;;;;;6225692;28;20462;-76
2021/06/11 12:08:36;;;;;;;8.70;7.80;;;;;;;;;;6223637;28;20453;-73
2021/06/11 12:11:38;;;;;;;9.75;8.75;;;;;;;;;;6222747;28;20502;-74
2021/06/11 12:14:39;;;;;;;10.68;9.68;;;;;;;;;;6217631;28;20137;-75
2021/06/11 12:17:40;;;;;;;9.25;8.35;;;;;;;;;;6225900;28;20050;-75
2021/06/11 12:20:42;;;;;;;10.75;9.70;;;;;;;;;;6223484;28;20133;-76
2021/06/11 12:23:44;;;;;;;10.40;9.50;;;;;;;;;;6224861;28;20501;-74
2021/06/11 12:26:46;;;;;;;10.45;7.68;;;;;;;;;;6230163;28;20065;-75
2021/06/11 12:29:47;;;;;;;9.75;8.73;;;;;;;;;;6225778;28;20096;-76
2021/06/11 12:32:48;;;;;;;10.00;8.98;;;;;;;;;;6239161;28;20041;-76
2021/06/11 12:35:49;;;;;;;8.13;7.15;;;;;;;;;;6235504;28;20498;-74
2021/06/11 12:38:52;;;;;;;10.85;9.80;;;;;;;;;;6200945;28;20138;-75
2021/06/11 12:41:55;;;;;;;9.50;8.50;;;;;;;;;;6200444;28;20373;-75
2021/06/11 12:44:57;;;;;;;11.10;9.75;;;;;;;;;;6205347;28;20135;-74
2021/06/11 12:47:58;;;;;;;;;;;;;;;;;;6225529;28;20124;-75
2021/06/11 12:50:59;;;;;;;9.88;8.95;;;;;;;;;;6224840;28;19933;-76
2021/06/11 12:54:02;;;;;;;10.73;8.40;;;;;;;;;;6222979;28;20133;-75
2021/06/11 12:57:04;;;;;;;10.73;9.82;;;;;;;;;;6223167;28;20069;-75
2021/06/11 13:00:13;;;;;;;8.30;7.50;;;;;;;;;;6224124;28;20069;-78
2021/06/11 13:03:14;;;;;;;13.52;7.40;;;;;;;;;;6225200;28;20475;-73
2021/06/11 13:06:15;;;;;;;11.32;7.93;;;;;;;;;;6224396;28;20568;-73
2021/06/11 13:09:17;;;;;;;9.20;8.15;;;;;;;;;;6224793;28;20104;-72
2021/06/11 13:12:18;;;;;;;7.65;6.95;;;;;;;;;;6224490;28;20180;-72
2021/06/11 13:15:19;;;;;;;8.82;6.88;;;;;;;;;;6224482;28;20056;-72
2021/06/11 13:18:20;;;;;;;9.68;7.55;;;;;;;;;;6224307;28;20052;-74
2021/06/11 13:21:22;;;;;;;8.90;7.93;;;;;;;;;;6224629;28;20046;-74
2021/06/11 13:24:25;;;;;;;7.38;6.70;;;;;;;;;;6223883;28;20050;-74
2021/06/11 13:27:26;;;;;;;11.27;9.82;;;;;;;;;;6224859;28;20085;-74
2021/06/11 13:30:28;;;;;;;8.53;6.87;;;;;;;;;;6221817;28;20124;-75
2021/06/11 13:33:29;;;;;;;8.57;7.63;;;;;;;;;;6224819;28;20085;-75
2021/06/11 13:36:30;;;;;;;7.10;6.40;;;;;;;;;;6224554;28;20052;-73
2021/06/11 13:39:33;;;;;;;7.82;5.57;;;;;;;;;;6224642;28;20054;-75
2021/06/11 13:42:34;;;;;;;6.85;6.35;;;;;;;;;;6224114;28;20131;-73
2021/06/11 13:45:35;;;;;;;6.03;5.53;;;;;;;;;;6223655;28;20054;-73
2021/06/11 13:48:36;;;;;;;8.27;7.47;;;;;;;;;;6223592;28;20046;-72
2021/06/11 13:51:37;;;;;;;7.27;6.60;;;;;;;;;;6223604;28;20136;-70
2021/06/11 13:54:40;;;;;;;7.80;7.00;;;;;;;;;;6223816;28;20145;-70
2021/06/11 13:57:42;;;;;;;9.27;7.03;;;;;;;;;;6222988;28;20064;-72
2021/06/11 14:00:43;;;;;;;6.85;6.20;;;;;;;;;;6223909;28;20050;-71
2021/06/11 14:03:44;;;;;;;5.85;5.35;;;;;;;;;;6223520;28;20073;-70
2021/06/11 14:06:45;;;;;;;5.63;5.13;;;;;;;;;;6223095;28;20045;-71
2021/06/11 14:09:47;;;;;;;5.30;3.83;;;;;;;;;;6229311;28;20076;-71
2021/06/11 14:12:49;;;;;;;5.25;4.85;;;;;;;;;;6222715;28;20076;-71
2021/06/11 14:15:50;;;;;;;4.38;4.07;;;;;;;;;;6223310;28;20132;-70
2021/06/11 14:18:52;;;;;;;11.32;5.82;;;;;;;;;;6221147;28;20058;-71
2021/06/11 14:21:53;;;;;;;8.65;5.00;;;;;;;;;;6221427;28;20084;-71
2021/06/11 14:24:55;;;;;;;5.20;4.60;;;;;;;;;;6223210;28;20208;-71
2021/06/11 14:27:58;;;;;;;5.88;5.30;;;;;;;;;;6222414;28;20042;-72
2021/06/11 14:30:59;;;;;;;6.47;4.70;;;;;;;;;;6222552;28;20389;-71
2021/06/11 14:34:01;;;;;;;6.05;4.90;;;;;;;;;;6224000;28;20159;-73
2021/06/11 14:37:02;;;;;;;5.95;5.45;;;;;;;;;;6227832;28;20497;-71
2021/06/11 14:40:06;;;;;;;6.63;6.00;;;;;;;;;;6227315;28;20548;-71
2021/06/11 14:43:07;;;;;;;7.28;5.80;;;;;;;;;;6227657;28;20081;-71
2021/06/11 14:46:08;;;;;;;9.85;6.00;;;;;;;;;;6219687;28;20481;-71
2021/06/11 14:49:10;;;;;;;5.68;5.18;;;;;;;;;;6227346;28;20160;-72
2021/06/11 14:52:12;;;;;;;8.07;5.10;;;;;;;;;;6226918;28;20057;-72
2021/06/11 14:55:15;;;;;;;6.30;5.70;;;;;;;;;;6227551;28;20053;-72
2021/06/11 14:58:16;;;;;;;6.43;4.80;;;;;;;;;;6226860;28;20042;-72
2021/06/11 15:01:18;;;;;;;9.48;5.40;;;;;;;;;;6226994;28;20121;-71
2021/06/11 15:04:19;;;;;;;8.50;6.00;;;;;;;;;;6226584;28;20038;-73
2021/06/11 15:07:20;;;;;;;6.35;5.55;;;;;;;;;;6227425;28;20060;-71
2021/06/11 15:10:22;;;;;;;5.55;5.05;;;;;;;;;;6226628;28;20132;-72
2021/06/11 15:13:24;;;;;;;7.47;5.15;;;;;;;;;;6224905;28;20099;-72
2021/06/11 15:16:25;;;;;;;5.65;4.78;;;;;;;;;;6225982;28;20049;-73
2021/06/11 15:19:26;;;;;;;7.30;5.68;;;;;;;;;;6226288;28;20042;-73
2021/06/11 15:22:29;;;;;;;9.10;4.70;;;;;;;;;;6219930;28;20121;-73
2021/06/11 15:25:31;;;;;;;6.93;5.03;;;;;;;;;;6223808;28;20484;-73
2021/06/11 15:28:32;;;;;;;9.68;4.85;;;;;;;;;;6213791;28;20509;-73
2021/06/11 15:31:33;;;;;;;6.50;4.70;;;;;;;;;;6206091;28;20114;-73
2021/06/11 15:34:35;;;;;;;6.93;5.53;;;;;;;;;;6202249;28;20100;-73
2021/06/11 15:37:36;;;;;;;6.68;4.82;;;;;;;;;;6202055;28;20414;-72
2021/06/11 15:40:38;;;;;;;6.65;4.38;;;;;;;;;;6200992;28;20066;-73
2021/06/11 15:43:40;;;;;;;9.65;4.15;;;;;;;;;;6201161;28;20558;-73
2021/06/11 15:46:41;;;;;;;8.00;4.03;;;;;;;;;;6200768;28;20042;-73
2021/06/11 15:49:42;;;;;;;10.77;4.95;;;;;;;;;;6201452;28;20122;-74
2021/06/11 15:52:44;;;;;;;14.52;5.15;;;;;;;;;;6201258;28;20140;-73
2021/06/11 15:55:46;;;;;;;5.70;4.90;;;;;;;;;;6201000;28;20133;-73
2021/06/11 15:58:48;;;;;;;5.40;4.90;;;;;;;;;;6211846;28;20525;-73
2021/06/11 16:01:49;;;;;;;9.07;6.47;;;;;;;;;;6225366;28;20061;-72
2021/06/11 16:04:50;;;;;;;7.03;5.68;;;;;;;;;;6224976;28;20068;-72
2021/06/11 16:07:51;;;;;;;9.10;6.45;;;;;;;;;;6223746;28;20485;-72
2021/06/11 16:10:53;;;;;;;7.30;6.60;;;;;;;;;;6212056;28;20136;-72
2021/06/11 16:13:55;;;;;;;7.38;6.68;;;;;;;;;;6211788;28;20558;-72
2021/06/11 16:16:56;;;;;;;8.65;5.30;;;;;;;;;;6207706;28;20052;-71
2021/06/11 16:19:57;;;;;;;8.85;7.30;;;;;;;;;;6200050;28;20512;-71
2021/06/11 16:22:59;;;;;;;7.57;6.80;;;;;;;;;;6201059;28;20053;-71
2021/06/11 16:26:01;;;;;;;9.32;6.90;;;;;;;;;;6203496;28;20093;-71
2021/06/11 16:29:07;;;;;;;7.35;6.68;;;;;;;;;;6204032;28;20061;-71
2021/06/11 16:32:08;;;;;;;7.32;6.63;;;;;;;;;;6218978;28;20565;-72
2021/06/11 16:35:11;;;;;;;10.57;9.47;;;;;;;;;;6224328;28;20457;-72
2021/06/11 16:38:14;;;;;;;24.90;10.00;;;;;;;;;;6223679;28;20128;-73
2021/06/11 16:41:17;;;;;;;14.88;9.55;;;;;;;;;;6224506;28;20049;-73
2021/06/11 16:44:18;;;;;;;14.75;9.90;;;;;;;;;;6223619;28;20434;-72
2021/06/11 16:47:19;;;;;;;12.63;7.93;;;;;;;;;;6224781;28;20088;-72
2021/06/11 16:50:20;;;;;;;12.23;8.63;;;;;;;;;;6224627;28;20081;-72
2021/06/11 16:53:22;;;;;;;11.65;8.02;;;;;;;;;;6224579;28;20132;-72
2021/06/11 16:56:24;;;;;;;12.07;8.82;;;;;;;;;;6218887;28;20045;-73
2021/06/11 16:59:25;;;;;;;10.07;9.02;;;;;;;;;;6224611;28;20129;-72
2021/06/11 17:02:26;;;;;;;11.13;9.20;;;;;;;;;;6246931;28;20392;-71
2021/06/11 17:05:27;;;;;;;10.63;9.32;;;;;;;;;;6248328;28;20556;-71
2021/06/11 17:08:28;;;;;;;17.15;10.60;;;;;;;;;;6244510;28;20266;-73
2021/06/11 17:11:31;;;;;;;13.13;9.93;;;;;;;;;;6211270;28;21529;-72
2021/06/11 17:14:32;;;;;;;10.52;9.43;;;;;;;;;;6214210;28;20080;-71
2021/06/11 17:17:33;;;;;;;17.00;10.73;;;;;;;;;;6216871;28;20069;-71
2021/06/11 17:20:35;;;;;;;13.77;11.18;;;;;;;;;;6220221;28;20060;-71
2021/06/11 17:23:36;;;;;;;12.45;11.15;;;;;;;;;;6248372;28;20064;-72
2021/06/11 17:26:43;;;;;;;15.70;11.52;;;;;;;;;;6248738;28;20135;-72
2021/06/11 17:29:46;;;;;;;13.93;10.85;;;;;;;;;;6248909;28;20049;-72
2021/06/11 17:32:47;;;;;;;13.13;10.43;;;;;;;;;;6248502;28;20085;-72
2021/06/11 17:35:49;;;;;;;14.13;11.85;;;;;;;;;;6210819;28;20062;-73
2021/06/11 17:38:52;;;;;;;16.02;10.73;;;;;;;;;;6199497;28;20054;-73
2021/06/11 17:41:55;;;;;;;11.70;10.50;;;;;;;;;;6199064;28;20138;-74
2021/06/11 17:44:59;;;;;;;10.38;9.27;;;;;;;;;;6199771;28;20078;-73
2021/06/11 17:48:00;;;;;;;12.23;8.98;;;;;;;;;;6198860;28;20109;-73
2021/06/11 17:51:02;;;;;;;8.65;7.85;;;;;;;;;;6199995;28;20053;-73
2021/06/11 17:54:04;;;;;;;8.33;7.43;;;;;;;;;;6199273;28;20084;-74
2021/06/11 17:57:08;;;;;;;11.63;7.88;;;;;;;;;;6199228;28;20457;-71
2021/06/11 18:00:10;;;;;;;13.27;7.30;;;;;;;;;;6199089;28;20549;-72
2021/06/11 18:03:34;;;;;;;11.70;6.97;;;;;;;;;;6199375;28;20085;-74